Loraine, California
Current Conditions -  °F | °C
As of 2:35 PM on Monday 26 Jan 2015 (Local Time) from KTSP Reporting Station
Clear Clear  
Wind Chill: 55°   Ceiling: Unl
Heat Index: 55°   Visibility: 10mi
Dew Point: 37°   Wind: 16mph
Humidity: 51%   Direction: 90°E
Pressure: 30.1"   Gusts: 22mph
Location:  35.3287°N, 118.419°W
Report Text: KTSP 262235Z AUTO 09014G19KT 10SM CLR 13/03 A3010 RMK AO2
Loading
Personal Weather Stations






























Interactive Weather Map New forecast layout! Learn more

10-Day Weather Forecast

Advertisements
Track Severe Weather on mobile